createdAt,value
2023-04-04T00:02:30.153Z,19.88
2023-04-04T00:07:33.219Z,20.63
2023-04-04T00:12:36.630Z,21.40
2023-04-04T00:17:39.431Z,21.50
2023-04-04T00:22:42.437Z,22.27
2023-04-04T00:27:45.062Z,21.98
2023-04-04T00:32:47.882Z,22.17
2023-04-04T00:37:50.519Z,22.52
2023-04-04T00:42:53.872Z,22.13
2023-04-04T00:47:58.170Z,22.55
2023-04-04T00:53:01.168Z,21.38
2023-04-04T00:58:03.819Z,21.60
2023-04-04T01:03:07.990Z,21.92
2023-04-04T01:08:11.270Z,23.20
2023-04-04T01:13:15.773Z,23.02
2023-04-04T01:18:21.575Z,23.58
2023-04-04T01:23:30.527Z,23.38
2023-04-04T01:28:33.499Z,23.92
2023-04-04T01:33:43.455Z,24.50
2023-04-04T01:38:58.001Z,24.08
2023-04-04T01:44:03.087Z,23.27
2023-04-04T01:49:06.120Z,23.30
2023-04-04T01:54:10.772Z,24.35
2023-04-04T01:59:13.625Z,24.00
2023-04-04T02:04:16.637Z,24.55
2023-04-04T02:09:19.524Z,24.52
2023-04-04T02:14:22.961Z,24.73
2023-04-04T02:19:46.290Z,23.70
2023-04-04T02:24:48.874Z,25.52
2023-04-04T02:29:51.542Z,24.13
2023-04-04T02:34:54.219Z,25.55
2023-04-04T02:39:57.704Z,24.58
2023-04-04T02:45:01.303Z,25.08
2023-04-04T02:50:05.644Z,25.88
2023-04-04T02:55:08.848Z,27.65
2023-04-04T03:00:15.964Z,27.00
2023-04-04T03:05:18.700Z,25.25
2023-04-04T03:10:21.651Z,26.30
2023-04-04T03:15:25.742Z,26.48
2023-04-04T03:20:28.655Z,24.35
2023-04-04T03:25:31.448Z,25.23
2023-04-04T03:30:34.458Z,25.98
2023-04-04T03:35:41.298Z,25.55
2023-04-04T03:40:44.478Z,25.38
2023-04-04T03:45:48.269Z,24.83
2023-04-04T03:50:51.145Z,24.13
2023-04-04T03:55:55.496Z,24.73
2023-04-04T04:00:58.141Z,24.13
2023-04-04T04:06:04.678Z,22.92
2023-04-04T04:11:09.085Z,23.92
2023-04-04T04:16:12.263Z,23.40
2023-04-04T04:21:16.205Z,23.17
2023-04-04T04:26:19.530Z,23.55
2023-04-04T04:31:23.799Z,23.42
2023-04-04T04:36:27.972Z,23.13
2023-04-04T04:46:43.222Z,23.08
2023-04-04T04:51:50.402Z,22.90
2023-04-04T04:56:55.191Z,22.13
2023-04-04T05:01:58.413Z,20.83
2023-04-04T05:07:02.581Z,20.75
2023-04-04T05:12:05.927Z,19.13
2023-04-04T05:17:23.600Z,18.30
2023-04-04T05:22:29.717Z,15.85
2023-04-04T05:27:32.503Z,16.88
2023-04-04T05:32:38.213Z,16.17
2023-04-04T05:37:46.458Z,14.55
2023-04-04T05:42:56.751Z,14.38
2023-04-04T05:48:04.748Z,15.18
2023-04-04T05:53:12.731Z,15.52
2023-04-04T05:58:19.011Z,16.08
2023-04-04T06:03:26.385Z,13.98
2023-04-04T06:08:31.999Z,15.43
2023-04-04T06:13:36.361Z,15.52
2023-04-04T06:18:43.680Z,14.85
2023-04-04T06:23:46.375Z,13.55
2023-04-04T06:28:50.572Z,14.15
2023-04-04T06:34:13.736Z,11.88
2023-04-04T06:39:31.579Z,13.65
2023-04-04T06:44:37.563Z,13.98
2023-04-04T06:49:40.190Z,13.38
2023-04-04T06:54:43.999Z,19.10
2023-04-04T06:59:50.771Z,13.07
2023-04-04T07:04:53.518Z,12.52
2023-04-04T07:09:56.627Z,10.57
2023-04-04T07:14:59.369Z,11.48
2023-04-04T07:20:03.594Z,10.75
2023-04-04T07:25:08.669Z,12.05
2023-04-04T07:30:12.178Z,10.43
2023-04-04T07:35:14.890Z,11.43
2023-04-04T07:40:17.801Z,9.65
2023-04-04T07:45:21.732Z,9.60
2023-04-04T07:50:24.392Z,8.80
2023-04-04T07:55:27.053Z,10.15
2023-04-04T08:00:29.684Z,10.18
2023-04-04T08:05:32.870Z,10.48
2023-04-04T08:10:35.582Z,9.13
2023-04-04T08:15:38.600Z,9.30
2023-04-04T08:20:42.280Z,8.77
2023-04-04T08:25:46.892Z,9.35
2023-04-04T08:30:49.532Z,7.78
2023-04-04T08:35:52.241Z,8.60
2023-04-04T08:40:54.933Z,8.90
2023-04-04T08:45:59.284Z,8.88
2023-04-04T08:51:04.802Z,9.68
2023-04-04T08:56:07.580Z,8.95
2023-04-04T09:01:10.916Z,9.45
2023-04-04T09:06:14.099Z,9.85
2023-04-04T09:11:17.855Z,9.88
2023-04-04T09:16:20.628Z,12.88
2023-04-04T09:21:23.366Z,10.82
2023-04-04T09:26:26.139Z,9.93
2023-04-04T09:31:28.975Z,10.77
2023-04-04T09:36:32.604Z,9.68
2023-04-04T09:41:40.398Z,10.45
2023-04-04T09:46:43.227Z,10.95
2023-04-04T09:51:50.129Z,11.52
2023-04-04T09:56:52.797Z,11.73
2023-04-04T10:01:55.942Z,11.57
2023-04-04T10:07:00.139Z,12.10
2023-04-04T10:12:10.047Z,12.48
2023-04-04T10:17:13.625Z,11.73
2023-04-04T10:22:17.232Z,11.32
2023-04-04T10:27:21.224Z,11.63
2023-04-04T10:33:05.658Z,12.00
2023-04-04T10:38:08.805Z,11.85
2023-04-04T10:43:12.306Z,11.38
2023-04-04T10:48:15.516Z,11.63
2023-04-04T10:53:18.598Z,10.45
2023-04-04T10:58:22.760Z,10.38
2023-04-04T11:03:25.714Z,11.90
2023-04-04T11:08:28.775Z,11.30
2023-04-04T11:13:39.949Z,10.82
2023-04-04T11:18:42.493Z,11.23
2023-04-04T11:23:48.252Z,10.95
2023-04-04T11:28:51.159Z,10.30
2023-04-04T11:34:11.422Z,9.68
2023-04-04T11:39:24.761Z,10.43
2023-04-04T11:44:31.569Z,9.82
2023-04-04T11:49:36.989Z,12.15
2023-04-04T11:54:40.968Z,11.15
2023-04-04T11:59:46.753Z,9.75
2023-04-04T12:04:52.089Z,9.48
2023-04-04T12:09:57.056Z,9.48
2023-04-04T12:15:14.557Z,10.00
2023-04-04T12:20:23.945Z,9.75
2023-04-04T12:25:28.614Z,10.52
2023-04-04T12:30:32.344Z,10.77
2023-04-04T12:35:34.988Z,11.73
2023-04-04T12:40:39.220Z,10.77
2023-04-04T12:45:43.933Z,11.57
2023-04-04T12:50:54.746Z,10.10
2023-04-04T12:56:04.896Z,10.13
2023-04-04T13:01:08.493Z,9.70
2023-04-04T13:06:13.073Z,9.15
2023-04-04T13:11:15.715Z,9.07
2023-04-04T13:16:33.123Z,9.82
2023-04-04T13:21:35.813Z,8.68
2023-04-04T13:26:38.421Z,8.60
2023-04-04T13:31:41.878Z,7.30
2023-04-04T13:36:45.066Z,8.25
2023-04-04T13:41:47.712Z,8.10
2023-04-04T13:46:50.364Z,8.65
2023-04-04T13:51:53.094Z,8.48
2023-04-04T13:56:56.594Z,9.65
2023-04-04T14:01:59.270Z,9.18
2023-04-04T14:07:02.094Z,8.48
2023-04-04T14:12:04.915Z,10.75
2023-04-04T14:17:07.767Z,10.27
2023-04-04T14:22:10.591Z,10.27
2023-04-04T14:27:13.474Z,10.55
2023-04-04T14:32:16.347Z,10.40
2023-04-04T14:37:19.010Z,10.18
2023-04-04T14:42:21.755Z,10.48
2023-04-04T14:47:24.517Z,9.63
2023-04-04T14:52:28.887Z,11.07
2023-04-04T14:57:32.208Z,10.45
2023-04-04T15:02:38.344Z,15.20
2023-04-04T15:07:41.344Z,14.25
2023-04-04T15:12:44.531Z,7.40
2023-04-04T15:17:47.186Z,8.18
2023-04-04T15:22:49.932Z,8.02
2023-04-04T15:27:52.475Z,7.38
2023-04-04T15:32:58.162Z,7.78
2023-04-04T15:38:01.090Z,7.13
2023-04-04T15:43:03.749Z,7.53
2023-04-04T15:48:06.496Z,7.65
2023-04-04T15:53:09.135Z,8.57
2023-04-04T15:58:11.836Z,7.93
2023-04-04T16:03:14.863Z,7.75
2023-04-04T16:08:18.275Z,8.80
2023-04-04T16:13:20.915Z,7.47
2023-04-04T16:18:23.501Z,7.40
2023-04-04T16:23:26.199Z,8.75
2023-04-04T16:28:28.969Z,11.20
2023-04-04T16:33:31.887Z,11.38
2023-04-04T16:38:34.628Z,9.05
2023-04-04T16:43:37.307Z,8.13
2023-04-04T16:48:39.956Z,7.40
2023-04-04T16:53:42.505Z,7.80
2023-04-04T16:58:46.192Z,8.45
2023-04-04T17:03:49.476Z,8.73
2023-04-04T17:08:52.321Z,8.15
2023-04-04T17:13:55.615Z,7.90
2023-04-04T17:18:58.140Z,9.25
2023-04-04T17:24:00.841Z,25.75
2023-04-04T17:29:03.499Z,9.43
2023-04-04T17:34:06.950Z,10.18
2023-04-04T17:39:09.758Z,9.80
2023-04-04T17:44:12.508Z,8.18
2023-04-04T17:49:20.130Z,13.52
2023-04-04T17:54:23.281Z,10.07
2023-04-04T17:59:26.093Z,17.95
2023-04-04T18:04:29.325Z,17.63
2023-04-04T18:09:32.073Z,9.05
2023-04-04T18:14:34.830Z,9.93
2023-04-04T18:19:39.079Z,10.57
2023-04-04T18:24:42.998Z,8.75
2023-04-04T18:29:45.658Z,8.48
2023-04-04T18:34:48.518Z,8.90
2023-04-04T18:39:51.303Z,9.57
2023-04-04T18:44:53.922Z,9.55
2023-04-04T18:49:57.504Z,9.50
2023-04-04T18:55:00.278Z,10.32
2023-04-04T19:00:03.650Z,9.90
2023-04-04T19:05:07.350Z,10.38
2023-04-04T19:10:10.109Z,10.30
2023-04-04T19:15:12.855Z,11.45
2023-04-04T19:20:15.646Z,11.55
2023-04-04T19:25:19.002Z,11.85
2023-04-04T19:30:43.787Z,10.60
2023-04-04T19:35:58.965Z,11.52
2023-04-04T19:41:03.610Z,10.95
2023-04-04T19:46:11.877Z,11.90
2023-04-04T19:51:17.352Z,11.60
2023-04-04T19:56:21.697Z,11.38
2023-04-04T20:01:28.050Z,12.30
2023-04-04T20:06:31.815Z,11.48
2023-04-04T20:11:36.618Z,11.77
2023-04-04T20:16:39.295Z,10.65
2023-04-04T20:21:42.139Z,11.82
2023-04-04T20:26:52.550Z,12.07
2023-04-04T20:32:08.726Z,10.30
2023-04-04T20:37:23.747Z,11.18
2023-04-04T20:42:26.286Z,11.52
2023-04-04T20:47:42.792Z,10.73
2023-04-04T20:52:52.384Z,11.65
2023-04-04T20:57:59.170Z,11.00
2023-04-04T21:03:10.130Z,10.70
2023-04-04T21:08:22.293Z,12.60
2023-04-04T21:13:34.328Z,12.30
2023-04-04T21:23:39.671Z,11.70
2023-04-04T21:28:46.189Z,12.20
2023-04-04T21:33:51.179Z,12.93
2023-04-04T21:38:56.182Z,12.80
2023-04-04T21:44:00.906Z,13.55
2023-04-04T21:49:05.259Z,12.93
2023-04-04T21:54:08.183Z,13.23
2023-04-04T21:59:10.849Z,13.90
2023-04-04T22:04:13.581Z,12.75
2023-04-04T22:09:16.373Z,14.10
2023-04-04T22:14:18.913Z,12.60
2023-04-04T22:19:23.600Z,13.82
2023-04-04T22:24:26.848Z,12.57
2023-04-04T22:29:29.616Z,13.52
2023-04-04T22:34:32.404Z,12.27
2023-04-04T22:39:35.043Z,13.15
2023-04-04T22:44:37.821Z,12.68
2023-04-04T22:49:48.563Z,12.18
2023-04-04T22:54:51.130Z,13.38
2023-04-04T22:59:53.721Z,13.18
2023-04-04T23:04:58.681Z,13.60
2023-04-04T23:10:01.431Z,12.23
2023-04-04T23:15:07.139Z,13.40
2023-04-04T23:20:10.121Z,13.18
2023-04-04T23:25:12.799Z,13.20
2023-04-04T23:30:15.561Z,13.05
2023-04-04T23:35:18.131Z,13.02
2023-04-04T23:40:21.141Z,13.35
2023-04-04T23:45:24.775Z,14.00
2023-04-04T23:50:27.436Z,13.80
2023-04-04T23:55:30.206Z,15.10
